sensor_id;sensor_type;location;lat;lon;timestamp;P1;durP1;ratioP1;P2;durP2;ratioP2
10463;SDS011;5279;42.048;24.638;2023-08-20T00:01:32;4.27;;;3.60;;
10463;SDS011;5279;42.048;24.638;2023-08-20T00:03:59;4.03;;;3.50;;
10463;SDS011;5279;42.048;24.638;2023-08-20T00:06:27;4.67;;;3.80;;
10463;SDS011;5279;42.048;24.638;2023-08-20T00:08:55;4.10;;;3.70;;
10463;SDS011;5279;42.048;24.638;2023-08-20T00:11:22;4.13;;;3.83;;
10463;SDS011;5279;42.048;24.638;2023-08-20T00:13:50;4.00;;;3.70;;
10463;SDS011;5279;42.048;24.638;2023-08-20T00:16:18;4.10;;;3.77;;
10463;SDS011;5279;42.048;24.638;2023-08-20T00:18:46;4.43;;;3.67;;
10463;SDS011;5279;42.048;24.638;2023-08-20T00:21:14;4.90;;;3.70;;
10463;SDS011;5279;42.048;24.638;2023-08-20T00:23:41;4.40;;;3.63;;
10463;SDS011;5279;42.048;24.638;2023-08-20T00:26:09;4.90;;;3.63;;
10463;SDS011;5279;42.048;24.638;2023-08-20T00:28:37;6.07;;;3.97;;
10463;SDS011;5279;42.048;24.638;2023-08-20T00:31:06;4.60;;;4.20;;
10463;SDS011;5279;42.048;24.638;2023-08-20T00:33:33;4.23;;;3.73;;
10463;SDS011;5279;42.048;24.638;2023-08-20T00:36:01;4.40;;;3.60;;
10463;SDS011;5279;42.048;24.638;2023-08-20T00:38:29;4.70;;;4.20;;
10463;SDS011;5279;42.048;24.638;2023-08-20T00:40:56;4.70;;;3.50;;
10463;SDS011;5279;42.048;24.638;2023-08-20T00:43:24;4.83;;;3.97;;
10463;SDS011;5279;42.048;24.638;2023-08-20T00:45:51;4.57;;;3.53;;
10463;SDS011;5279;42.048;24.638;2023-08-20T00:48:21;6.87;;;4.13;;
10463;SDS011;5279;42.048;24.638;2023-08-20T00:50:49;5.40;;;3.83;;
10463;SDS011;5279;42.048;24.638;2023-08-20T00:53:34;5.03;;;3.80;;
10463;SDS011;5279;42.048;24.638;2023-08-20T00:56:01;4.63;;;4.20;;
10463;SDS011;5279;42.048;24.638;2023-08-20T00:58:28;5.57;;;4.07;;
10463;SDS011;5279;42.048;24.638;2023-08-20T01:00:59;3.90;;;3.60;;
10463;SDS011;5279;42.048;24.638;2023-08-20T01:03:27;4.33;;;3.93;;
10463;SDS011;5279;42.048;24.638;2023-08-20T01:05:57;5.87;;;4.13;;
10463;SDS011;5279;42.048;24.638;2023-08-20T01:08:33;4.10;;;3.80;;
10463;SDS011;5279;42.048;24.638;2023-08-20T01:11:06;4.00;;;3.60;;
10463;SDS011;5279;42.048;24.638;2023-08-20T01:13:42;4.30;;;3.90;;
10463;SDS011;5279;42.048;24.638;2023-08-20T01:16:11;4.33;;;3.93;;
10463;SDS011;5279;42.048;24.638;2023-08-20T01:18:39;5.20;;;4.30;;
10463;SDS011;5279;42.048;24.638;2023-08-20T01:21:10;4.37;;;3.97;;
10463;SDS011;5279;42.048;24.638;2023-08-20T01:27:00;4.77;;;4.27;;
10463;SDS011;5279;42.048;24.638;2023-08-20T01:29:36;4.27;;;3.90;;
10463;SDS011;5279;42.048;24.638;2023-08-20T01:32:05;5.53;;;4.03;;
10463;SDS011;5279;42.048;24.638;2023-08-20T01:34:33;5.27;;;3.67;;
10463;SDS011;5279;42.048;24.638;2023-08-20T01:37:01;5.90;;;3.70;;
10463;SDS011;5279;42.048;24.638;2023-08-20T01:39:28;4.33;;;3.93;;
10463;SDS011;5279;42.048;24.638;2023-08-20T01:41:55;6.20;;;4.23;;
10463;SDS011;5279;42.048;24.638;2023-08-20T01:44:22;5.13;;;4.30;;
10463;SDS011;5279;42.048;24.638;2023-08-20T01:46:51;5.40;;;4.43;;
10463;SDS011;5279;42.048;24.638;2023-08-20T01:49:18;7.57;;;4.80;;
10463;SDS011;5279;42.048;24.638;2023-08-20T01:51:46;4.47;;;4.07;;
10463;SDS011;5279;42.048;24.638;2023-08-20T01:54:13;4.40;;;4.00;;
10463;SDS011;5279;42.048;24.638;2023-08-20T01:56:40;5.00;;;4.57;;
10463;SDS011;5279;42.048;24.638;2023-08-20T01:59:07;6.07;;;4.73;;
10463;SDS011;5279;42.048;24.638;2023-08-20T02:01:35;4.87;;;4.43;;
10463;SDS011;5279;42.048;24.638;2023-08-20T02:04:04;9.30;;;4.93;;
10463;SDS011;5279;42.048;24.638;2023-08-20T02:06:31;6.17;;;4.40;;
10463;SDS011;5279;42.048;24.638;2023-08-20T02:08:59;5.50;;;4.37;;
10463;SDS011;5279;42.048;24.638;2023-08-20T02:11:26;5.40;;;4.90;;
10463;SDS011;5279;42.048;24.638;2023-08-20T02:13:55;4.93;;;4.43;;
10463;SDS011;5279;42.048;24.638;2023-08-20T02:16:23;5.87;;;4.63;;
10463;SDS011;5279;42.048;24.638;2023-08-20T02:18:50;8.00;;;4.57;;
10463;SDS011;5279;42.048;24.638;2023-08-20T02:21:18;5.10;;;4.60;;
10463;SDS011;5279;42.048;24.638;2023-08-20T02:23:46;5.67;;;4.70;;
10463;SDS011;5279;42.048;24.638;2023-08-20T02:26:13;6.80;;;4.73;;
10463;SDS011;5279;42.048;24.638;2023-08-20T02:28:41;5.03;;;4.17;;
10463;SDS011;5279;42.048;24.638;2023-08-20T02:31:09;4.73;;;4.33;;
10463;SDS011;5279;42.048;24.638;2023-08-20T02:33:36;7.20;;;4.37;;
10463;SDS011;5279;42.048;24.638;2023-08-20T02:36:03;7.53;;;4.80;;
10463;SDS011;5279;42.048;24.638;2023-08-20T02:38:33;5.20;;;4.40;;
10463;SDS011;5279;42.048;24.638;2023-08-20T02:41:00;7.07;;;4.40;;
10463;SDS011;5279;42.048;24.638;2023-08-20T02:43:28;4.90;;;4.03;;
10463;SDS011;5279;42.048;24.638;2023-08-20T02:45:57;5.30;;;4.20;;
10463;SDS011;5279;42.048;24.638;2023-08-20T02:48:30;6.00;;;4.57;;
10463;SDS011;5279;42.048;24.638;2023-08-20T02:50:57;6.27;;;4.77;;
10463;SDS011;5279;42.048;24.638;2023-08-20T02:53:25;5.40;;;4.50;;
10463;SDS011;5279;42.048;24.638;2023-08-20T02:55:53;4.60;;;4.17;;
10463;SDS011;5279;42.048;24.638;2023-08-20T02:58:21;5.77;;;4.53;;
10463;SDS011;5279;42.048;24.638;2023-08-20T03:00:49;4.70;;;4.23;;
10463;SDS011;5279;42.048;24.638;2023-08-20T03:03:16;4.77;;;4.33;;
10463;SDS011;5279;42.048;24.638;2023-08-20T03:05:43;4.33;;;3.93;;
10463;SDS011;5279;42.048;24.638;2023-08-20T03:08:10;4.83;;;4.33;;
10463;SDS011;5279;42.048;24.638;2023-08-20T03:10:38;5.90;;;5.00;;
10463;SDS011;5279;42.048;24.638;2023-08-20T03:13:07;4.97;;;4.47;;
10463;SDS011;5279;42.048;24.638;2023-08-20T03:15:34;5.43;;;4.60;;
10463;SDS011;5279;42.048;24.638;2023-08-20T03:18:02;5.33;;;4.03;;
10463;SDS011;5279;42.048;24.638;2023-08-20T03:20:29;4.77;;;4.07;;
10463;SDS011;5279;42.048;24.638;2023-08-20T03:22:57;7.30;;;4.13;;
10463;SDS011;5279;42.048;24.638;2023-08-20T03:25:24;4.60;;;4.20;;
10463;SDS011;5279;42.048;24.638;2023-08-20T03:27:52;7.27;;;4.30;;
10463;SDS011;5279;42.048;24.638;2023-08-20T03:30:20;4.53;;;4.13;;
10463;SDS011;5279;42.048;24.638;2023-08-20T03:32:48;11.67;;;4.43;;
10463;SDS011;5279;42.048;24.638;2023-08-20T03:35:15;4.63;;;4.20;;
10463;SDS011;5279;42.048;24.638;2023-08-20T03:37:43;4.90;;;4.40;;
10463;SDS011;5279;42.048;24.638;2023-08-20T03:40:11;6.33;;;4.13;;
10463;SDS011;5279;42.048;24.638;2023-08-20T03:42:38;6.03;;;4.50;;
10463;SDS011;5279;42.048;24.638;2023-08-20T03:45:06;4.87;;;4.07;;
10463;SDS011;5279;42.048;24.638;2023-08-20T03:47:35;6.30;;;4.90;;
10463;SDS011;5279;42.048;24.638;2023-08-20T03:50:03;7.17;;;4.23;;
10463;SDS011;5279;42.048;24.638;2023-08-20T03:52:30;5.53;;;4.57;;
10463;SDS011;5279;42.048;24.638;2023-08-20T03:54:57;6.70;;;4.67;;
10463;SDS011;5279;42.048;24.638;2023-08-20T03:57:23;6.40;;;5.00;;
10463;SDS011;5279;42.048;24.638;2023-08-20T03:59:50;5.30;;;4.80;;
10463;SDS011;5279;42.048;24.638;2023-08-20T04:02:18;5.70;;;4.77;;
10463;SDS011;5279;42.048;24.638;2023-08-20T04:04:46;5.33;;;4.63;;
10463;SDS011;5279;42.048;24.638;2023-08-20T04:07:13;7.37;;;5.17;;
10463;SDS011;5279;42.048;24.638;2023-08-20T04:09:41;5.30;;;4.80;;
10463;SDS011;5279;42.048;24.638;2023-08-20T04:12:09;6.00;;;4.90;;
10463;SDS011;5279;42.048;24.638;2023-08-20T04:14:36;4.90;;;4.40;;
10463;SDS011;5279;42.048;24.638;2023-08-20T04:17:04;6.63;;;4.70;;
10463;SDS011;5279;42.048;24.638;2023-08-20T04:19:31;8.30;;;5.17;;
10463;SDS011;5279;42.048;24.638;2023-08-20T04:22:00;5.97;;;4.50;;
10463;SDS011;5279;42.048;24.638;2023-08-20T04:24:27;5.00;;;4.50;;
10463;SDS011;5279;42.048;24.638;2023-08-20T04:26:55;5.03;;;4.63;;
10463;SDS011;5279;42.048;24.638;2023-08-20T04:29:22;4.53;;;4.13;;
10463;SDS011;5279;42.048;24.638;2023-08-20T04:31:50;5.67;;;4.47;;
10463;SDS011;5279;42.048;24.638;2023-08-20T04:34:17;5.83;;;4.67;;
10463;SDS011;5279;42.048;24.638;2023-08-20T04:36:44;5.00;;;4.57;;
10463;SDS011;5279;42.048;24.638;2023-08-20T04:39:13;5.00;;;4.50;;
10463;SDS011;5279;42.048;24.638;2023-08-20T04:41:41;5.00;;;4.50;;
10463;SDS011;5279;42.048;24.638;2023-08-20T04:44:08;6.63;;;4.60;;
10463;SDS011;5279;42.048;24.638;2023-08-20T04:46:36;7.10;;;4.73;;
10463;SDS011;5279;42.048;24.638;2023-08-20T04:49:03;6.47;;;4.27;;
10463;SDS011;5279;42.048;24.638;2023-08-20T04:51:31;4.90;;;4.40;;
10463;SDS011;5279;42.048;24.638;2023-08-20T04:53:58;7.27;;;4.90;;
10463;SDS011;5279;42.048;24.638;2023-08-20T04:56:28;5.77;;;4.60;;
10463;SDS011;5279;42.048;24.638;2023-08-20T04:58:55;4.97;;;4.40;;
10463;SDS011;5279;42.048;24.638;2023-08-20T05:01:22;5.17;;;4.23;;
10463;SDS011;5279;42.048;24.638;2023-08-20T05:03:49;5.60;;;4.67;;
10463;SDS011;5279;42.048;24.638;2023-08-20T05:06:17;4.67;;;4.27;;
10463;SDS011;5279;42.048;24.638;2023-08-20T05:08:44;4.70;;;4.20;;
10463;SDS011;5279;42.048;24.638;2023-08-20T05:11:11;4.83;;;4.40;;
10463;SDS011;5279;42.048;24.638;2023-08-20T05:13:40;5.00;;;4.30;;
10463;SDS011;5279;42.048;24.638;2023-08-20T05:16:07;5.07;;;4.43;;
10463;SDS011;5279;42.048;24.638;2023-08-20T05:18:34;4.53;;;4.13;;
10463;SDS011;5279;42.048;24.638;2023-08-20T05:21:01;4.60;;;4.20;;
10463;SDS011;5279;42.048;24.638;2023-08-20T05:23:28;4.67;;;4.27;;
10463;SDS011;5279;42.048;24.638;2023-08-20T05:25:56;5.20;;;4.27;;
10463;SDS011;5279;42.048;24.638;2023-08-20T05:28:23;5.70;;;4.57;;
10463;SDS011;5279;42.048;24.638;2023-08-20T05:30:56;4.10;;;3.70;;
10463;SDS011;5279;42.048;24.638;2023-08-20T05:33:23;4.00;;;3.70;;
10463;SDS011;5279;42.048;24.638;2023-08-20T05:35:50;6.93;;;4.03;;
10463;SDS011;5279;42.048;24.638;2023-08-20T05:38:18;5.00;;;4.13;;
10463;SDS011;5279;42.048;24.638;2023-08-20T05:40:45;4.30;;;3.90;;
10463;SDS011;5279;42.048;24.638;2023-08-20T05:43:12;4.77;;;4.30;;
10463;SDS011;5279;42.048;24.638;2023-08-20T05:45:39;4.23;;;3.70;;
10463;SDS011;5279;42.048;24.638;2023-08-20T05:48:08;4.60;;;3.97;;
10463;SDS011;5279;42.048;24.638;2023-08-20T05:50:36;4.87;;;4.13;;
10463;SDS011;5279;42.048;24.638;2023-08-20T05:53:03;7.43;;;5.40;;
10463;SDS011;5279;42.048;24.638;2023-08-20T05:55:30;3.90;;;3.60;;
10463;SDS011;5279;42.048;24.638;2023-08-20T05:57:57;4.30;;;3.90;;
10463;SDS011;5279;42.048;24.638;2023-08-20T06:00:24;9.67;;;3.73;;
10463;SDS011;5279;42.048;24.638;2023-08-20T06:02:51;4.47;;;4.07;;
10463;SDS011;5279;42.048;24.638;2023-08-20T06:05:20;4.80;;;3.70;;
10463;SDS011;5279;42.048;24.638;2023-08-20T06:07:47;4.03;;;3.73;;
10463;SDS011;5279;42.048;24.638;2023-08-20T06:10:15;5.00;;;3.90;;
10463;SDS011;5279;42.048;24.638;2023-08-20T06:12:42;4.90;;;3.50;;
10463;SDS011;5279;42.048;24.638;2023-08-20T06:15:10;4.00;;;3.60;;
10463;SDS011;5279;42.048;24.638;2023-08-20T06:17:37;3.70;;;3.40;;
10463;SDS011;5279;42.048;24.638;2023-08-20T06:20:04;3.90;;;3.60;;
10463;SDS011;5279;42.048;24.638;2023-08-20T06:22:34;4.00;;;3.70;;
10463;SDS011;5279;42.048;24.638;2023-08-20T06:25:02;5.00;;;3.77;;
10463;SDS011;5279;42.048;24.638;2023-08-20T06:27:29;4.00;;;3.70;;
10463;SDS011;5279;42.048;24.638;2023-08-20T06:29:56;4.33;;;3.70;;
10463;SDS011;5279;42.048;24.638;2023-08-20T06:32:25;6.23;;;3.47;;
10463;SDS011;5279;42.048;24.638;2023-08-20T06:34:52;3.87;;;3.57;;
10463;SDS011;5279;42.048;24.638;2023-08-20T06:37:19;5.07;;;3.93;;
10463;SDS011;5279;42.048;24.638;2023-08-20T06:39:48;3.93;;;3.63;;
10463;SDS011;5279;42.048;24.638;2023-08-20T06:42:15;5.00;;;4.50;;
10463;SDS011;5279;42.048;24.638;2023-08-20T06:44:42;4.03;;;3.73;;
10463;SDS011;5279;42.048;24.638;2023-08-20T06:47:09;7.03;;;4.47;;
10463;SDS011;5279;42.048;24.638;2023-08-20T06:49:37;5.37;;;4.10;;
10463;SDS011;5279;42.048;24.638;2023-08-20T06:52:04;5.47;;;4.60;;
10463;SDS011;5279;42.048;24.638;2023-08-20T06:54:31;6.63;;;4.63;;
10463;SDS011;5279;42.048;24.638;2023-08-20T06:57:00;5.73;;;4.63;;
10463;SDS011;5279;42.048;24.638;2023-08-20T06:59:27;5.30;;;4.80;;
10463;SDS011;5279;42.048;24.638;2023-08-20T07:01:55;5.90;;;4.53;;
10463;SDS011;5279;42.048;24.638;2023-08-20T07:04:22;5.33;;;4.83;;
10463;SDS011;5279;42.048;24.638;2023-08-20T07:06:49;5.10;;;4.70;;
10463;SDS011;5279;42.048;24.638;2023-08-20T07:09:17;4.97;;;4.57;;
10463;SDS011;5279;42.048;24.638;2023-08-20T07:11:44;5.67;;;4.73;;
10463;SDS011;5279;42.048;24.638;2023-08-20T07:14:12;7.37;;;4.87;;
10463;SDS011;5279;42.048;24.638;2023-08-20T07:16:39;8.65;;;5.20;;
10463;SDS011;5279;42.048;24.638;2023-08-20T07:19:06;5.93;;;5.32;;
10463;SDS011;5279;42.048;24.638;2023-08-20T07:21:33;6.93;;;5.63;;
10463;SDS011;5279;42.048;24.638;2023-08-20T07:24:00;6.10;;;5.50;;
10463;SDS011;5279;42.048;24.638;2023-08-20T07:26:28;7.82;;;5.30;;
10463;SDS011;5279;42.048;24.638;2023-08-20T07:28:56;5.78;;;5.13;;
10463;SDS011;5279;42.048;24.638;2023-08-20T07:31:25;10.77;;;5.78;;
10463;SDS011;5279;42.048;24.638;2023-08-20T07:33:53;11.55;;;5.32;;
10463;SDS011;5279;42.048;24.638;2023-08-20T07:36:22;10.52;;;5.63;;
10463;SDS011;5279;42.048;24.638;2023-08-20T07:38:51;9.48;;;5.22;;
10463;SDS011;5279;42.048;24.638;2023-08-20T07:41:18;5.95;;;5.35;;
10463;SDS011;5279;42.048;24.638;2023-08-20T07:43:46;6.50;;;5.55;;
10463;SDS011;5279;42.048;24.638;2023-08-20T07:46:14;5.97;;;5.40;;
10463;SDS011;5279;42.048;24.638;2023-08-20T07:48:43;6.38;;;5.68;;
10463;SDS011;5279;42.048;24.638;2023-08-20T07:51:11;10.57;;;5.50;;
10463;SDS011;5279;42.048;24.638;2023-08-20T07:53:39;8.38;;;5.72;;
10463;SDS011;5279;42.048;24.638;2023-08-20T07:56:06;10.35;;;5.40;;
10463;SDS011;5279;42.048;24.638;2023-08-20T07:58:34;6.10;;;5.50;;
10463;SDS011;5279;42.048;24.638;2023-08-20T08:01:01;7.65;;;5.53;;
10463;SDS011;5279;42.048;24.638;2023-08-20T08:03:28;7.03;;;5.60;;
10463;SDS011;5279;42.048;24.638;2023-08-20T08:05:56;5.97;;;5.35;;
10463;SDS011;5279;42.048;24.638;2023-08-20T08:08:23;5.57;;;5.07;;
10463;SDS011;5279;42.048;24.638;2023-08-20T08:10:51;7.28;;;5.15;;
10463;SDS011;5279;42.048;24.638;2023-08-20T08:13:19;7.03;;;5.60;;
10463;SDS011;5279;42.048;24.638;2023-08-20T08:15:47;5.18;;;4.55;;
10463;SDS011;5279;42.048;24.638;2023-08-20T08:18:15;5.00;;;4.60;;
10463;SDS011;5279;42.048;24.638;2023-08-20T08:20:42;4.72;;;4.32;;
10463;SDS011;5279;42.048;24.638;2023-08-20T08:23:10;4.30;;;3.95;;
10463;SDS011;5279;42.048;24.638;2023-08-20T08:25:38;5.57;;;4.68;;
10463;SDS011;5279;42.048;24.638;2023-08-20T08:28:06;5.20;;;4.38;;
10463;SDS011;5279;42.048;24.638;2023-08-20T08:30:33;6.53;;;3.30;;
10463;SDS011;5279;42.048;24.638;2023-08-20T08:33:00;3.90;;;3.60;;
10463;SDS011;5279;42.048;24.638;2023-08-20T08:35:27;4.05;;;3.75;;
10463;SDS011;5279;42.048;24.638;2023-08-20T08:37:54;4.13;;;3.83;;
10463;SDS011;5279;42.048;24.638;2023-08-20T08:40:24;4.72;;;3.80;;
10463;SDS011;5279;42.048;24.638;2023-08-20T08:42:55;4.50;;;4.00;;
10463;SDS011;5279;42.048;24.638;2023-08-20T08:45:22;5.85;;;4.15;;
10463;SDS011;5279;42.048;24.638;2023-08-20T08:47:50;3.63;;;3.33;;
10463;SDS011;5279;42.048;24.638;2023-08-20T08:50:20;3.85;;;3.45;;
10463;SDS011;5279;42.048;24.638;2023-08-20T08:52:47;3.63;;;3.40;;
10463;SDS011;5279;42.048;24.638;2023-08-20T08:55:17;3.70;;;3.40;;
10463;SDS011;5279;42.048;24.638;2023-08-20T08:57:46;4.95;;;3.42;;
10463;SDS011;5279;42.048;24.638;2023-08-20T09:00:13;3.60;;;3.30;;
10463;SDS011;5279;42.048;24.638;2023-08-20T09:02:41;4.07;;;3.70;;
10463;SDS011;5279;42.048;24.638;2023-08-20T09:05:08;5.50;;;3.20;;
10463;SDS011;5279;42.048;24.638;2023-08-20T09:07:37;3.92;;;3.53;;
10463;SDS011;5279;42.048;24.638;2023-08-20T09:10:08;3.67;;;3.30;;
10463;SDS011;5279;42.048;24.638;2023-08-20T09:12:36;4.15;;;3.75;;
10463;SDS011;5279;42.048;24.638;2023-08-20T09:15:09;4.05;;;3.42;;
10463;SDS011;5279;42.048;24.638;2023-08-20T09:17:37;3.97;;;3.40;;
10463;SDS011;5279;42.048;24.638;2023-08-20T09:20:05;6.80;;;3.95;;
10463;SDS011;5279;42.048;24.638;2023-08-20T09:22:33;3.97;;;2.83;;
10463;SDS011;5279;42.048;24.638;2023-08-20T09:25:02;3.70;;;3.40;;
10463;SDS011;5279;42.048;24.638;2023-08-20T09:27:29;6.45;;;3.20;;
10463;SDS011;5279;42.048;24.638;2023-08-20T09:30:07;3.25;;;2.95;;
10463;SDS011;5279;42.048;24.638;2023-08-20T09:32:35;5.90;;;3.80;;
10463;SDS011;5279;42.048;24.638;2023-08-20T09:35:02;3.63;;;3.28;;
10463;SDS011;5279;42.048;24.638;2023-08-20T09:37:30;4.20;;;3.30;;
10463;SDS011;5279;42.048;24.638;2023-08-20T09:39:59;4.45;;;2.92;;
10463;SDS011;5279;42.048;24.638;2023-08-20T09:42:26;3.60;;;3.00;;
10463;SDS011;5279;42.048;24.638;2023-08-20T09:44:58;5.68;;;3.33;;
10463;SDS011;5279;42.048;24.638;2023-08-20T09:47:30;3.35;;;3.05;;
10463;SDS011;5279;42.048;24.638;2023-08-20T09:50:01;3.25;;;2.90;;
10463;SDS011;5279;42.048;24.638;2023-08-20T09:52:34;5.25;;;3.10;;
10463;SDS011;5279;42.048;24.638;2023-08-20T09:55:07;3.22;;;2.60;;
10463;SDS011;5279;42.048;24.638;2023-08-20T09:57:36;5.68;;;3.00;;
10463;SDS011;5279;42.048;24.638;2023-08-20T10:00:04;4.05;;;2.85;;
10463;SDS011;5279;42.048;24.638;2023-08-20T10:02:36;4.28;;;3.15;;
10463;SDS011;5279;42.048;24.638;2023-08-20T10:05:04;3.20;;;2.90;;
10463;SDS011;5279;42.048;24.638;2023-08-20T10:07:33;3.65;;;3.15;;
10463;SDS011;5279;42.048;24.638;2023-08-20T10:10:01;7.80;;;3.00;;
10463;SDS011;5279;42.048;24.638;2023-08-20T10:12:30;4.10;;;3.10;;
10463;SDS011;5279;42.048;24.638;2023-08-20T10:14:58;6.60;;;3.15;;
10463;SDS011;5279;42.048;24.638;2023-08-20T10:17:28;3.88;;;2.60;;
10463;SDS011;5279;42.048;24.638;2023-08-20T10:19:58;3.90;;;2.90;;
10463;SDS011;5279;42.048;24.638;2023-08-20T10:22:32;4.53;;;2.80;;
10463;SDS011;5279;42.048;24.638;2023-08-20T10:25:00;3.22;;;3.03;;
10463;SDS011;5279;42.048;24.638;2023-08-20T10:27:28;3.40;;;2.55;;
10463;SDS011;5279;42.048;24.638;2023-08-20T10:29:58;6.40;;;2.90;;
10463;SDS011;5279;42.048;24.638;2023-08-20T10:35:16;3.35;;;2.90;;
10463;SDS011;5279;42.048;24.638;2023-08-20T10:38:00;7.40;;;2.97;;
10463;SDS011;5279;42.048;24.638;2023-08-20T10:40:47;4.20;;;3.05;;
10463;SDS011;5279;42.048;24.638;2023-08-20T10:43:28;5.30;;;3.03;;
10463;SDS011;5279;42.048;24.638;2023-08-20T10:46:14;5.30;;;3.05;;
10463;SDS011;5279;42.048;24.638;2023-08-20T10:48:43;3.33;;;3.03;;
10463;SDS011;5279;42.048;24.638;2023-08-20T10:51:16;4.55;;;3.45;;
10463;SDS011;5279;42.048;24.638;2023-08-20T10:53:48;3.35;;;3.05;;
10463;SDS011;5279;42.048;24.638;2023-08-20T10:56:37;4.05;;;3.00;;
10463;SDS011;5279;42.048;24.638;2023-08-20T10:59:06;3.70;;;2.90;;
10463;SDS011;5279;42.048;24.638;2023-08-20T11:01:35;3.13;;;2.88;;
10463;SDS011;5279;42.048;24.638;2023-08-20T11:04:03;5.13;;;2.85;;
10463;SDS011;5279;42.048;24.638;2023-08-20T11:06:34;3.90;;;2.90;;
10463;SDS011;5279;42.048;24.638;2023-08-20T11:09:01;3.75;;;2.80;;
10463;SDS011;5279;42.048;24.638;2023-08-20T11:11:31;3.40;;;3.10;;
10463;SDS011;5279;42.048;24.638;2023-08-20T11:14:03;3.45;;;3.15;;
10463;SDS011;5279;42.048;24.638;2023-08-20T11:16:31;3.15;;;2.60;;
10463;SDS011;5279;42.048;24.638;2023-08-20T11:18:58;3.55;;;3.25;;
10463;SDS011;5279;42.048;24.638;2023-08-20T11:21:25;3.83;;;3.40;;
10463;SDS011;5279;42.048;24.638;2023-08-20T11:23:53;3.72;;;3.00;;
10463;SDS011;5279;42.048;24.638;2023-08-20T11:26:21;3.35;;;3.05;;
10463;SDS011;5279;42.048;24.638;2023-08-20T11:28:48;3.45;;;2.88;;
10463;SDS011;5279;42.048;24.638;2023-08-20T11:31:15;3.10;;;2.90;;
10463;SDS011;5279;42.048;24.638;2023-08-20T11:33:42;3.25;;;3.00;;
10463;SDS011;5279;42.048;24.638;2023-08-20T11:36:10;4.47;;;2.70;;
10463;SDS011;5279;42.048;24.638;2023-08-20T11:38:37;3.47;;;2.88;;
10463;SDS011;5279;42.048;24.638;2023-08-20T11:41:06;3.30;;;3.00;;
10463;SDS011;5279;42.048;24.638;2023-08-20T11:43:33;3.70;;;3.08;;
10463;SDS011;5279;42.048;24.638;2023-08-20T11:46:00;3.75;;;3.40;;
10463;SDS011;5279;42.048;24.638;2023-08-20T11:48:27;3.50;;;2.90;;
10463;SDS011;5279;42.048;24.638;2023-08-20T11:50:55;7.68;;;3.50;;
10463;SDS011;5279;42.048;24.638;2023-08-20T11:53:23;4.53;;;3.35;;
10463;SDS011;5279;42.048;24.638;2023-08-20T11:55:50;3.53;;;2.90;;
10463;SDS011;5279;42.048;24.638;2023-08-20T11:58:19;3.03;;;2.78;;
10463;SDS011;5279;42.048;24.638;2023-08-20T12:00:48;4.32;;;3.15;;
10463;SDS011;5279;42.048;24.638;2023-08-20T12:03:17;7.95;;;3.25;;
10463;SDS011;5279;42.048;24.638;2023-08-20T12:05:44;4.38;;;3.05;;
10463;SDS011;5279;42.048;24.638;2023-08-20T12:08:14;3.47;;;3.17;;
10463;SDS011;5279;42.048;24.638;2023-08-20T12:10:43;3.67;;;3.33;;
10463;SDS011;5279;42.048;24.638;2023-08-20T12:13:10;5.75;;;2.80;;
10463;SDS011;5279;42.048;24.638;2023-08-20T12:15:39;4.60;;;3.65;;
10463;SDS011;5279;42.048;24.638;2023-08-20T12:18:06;6.07;;;3.00;;
10463;SDS011;5279;42.048;24.638;2023-08-20T12:20:34;4.70;;;2.80;;
10463;SDS011;5279;42.048;24.638;2023-08-20T12:23:02;4.88;;;3.33;;
10463;SDS011;5279;42.048;24.638;2023-08-20T12:25:31;3.05;;;2.85;;
10463;SDS011;5279;42.048;24.638;2023-08-20T12:28:00;5.47;;;3.05;;
10463;SDS011;5279;42.048;24.638;2023-08-20T12:30:28;3.83;;;3.40;;
10463;SDS011;5279;42.048;24.638;2023-08-20T12:32:57;5.47;;;3.22;;
10463;SDS011;5279;42.048;24.638;2023-08-20T12:35:24;4.03;;;3.38;;
10463;SDS011;5279;42.048;24.638;2023-08-20T12:37:51;6.53;;;2.80;;
10463;SDS011;5279;42.048;24.638;2023-08-20T12:40:18;3.17;;;2.95;;
10463;SDS011;5279;42.048;24.638;2023-08-20T12:42:45;3.25;;;3.03;;
10463;SDS011;5279;42.048;24.638;2023-08-20T12:45:12;3.20;;;2.90;;
10463;SDS011;5279;42.048;24.638;2023-08-20T12:47:39;3.80;;;2.90;;
10463;SDS011;5279;42.048;24.638;2023-08-20T12:50:08;4.43;;;2.80;;
10463;SDS011;5279;42.048;24.638;2023-08-20T12:52:36;3.28;;;2.97;;
10463;SDS011;5279;42.048;24.638;2023-08-20T12:55:03;6.80;;;3.22;;
10463;SDS011;5279;42.048;24.638;2023-08-20T12:57:33;3.30;;;3.10;;
10463;SDS011;5279;42.048;24.638;2023-08-20T13:00:02;5.85;;;3.25;;
10463;SDS011;5279;42.048;24.638;2023-08-20T13:02:32;4.30;;;3.25;;
10463;SDS011;5279;42.048;24.638;2023-08-20T13:05:00;4.10;;;3.38;;
10463;SDS011;5279;42.048;24.638;2023-08-20T13:07:30;4.15;;;3.22;;
10463;SDS011;5279;42.048;24.638;2023-08-20T13:09:57;3.72;;;2.92;;
10463;SDS011;5279;42.048;24.638;2023-08-20T13:12:25;3.45;;;3.15;;
10463;SDS011;5279;42.048;24.638;2023-08-20T13:14:54;4.88;;;3.10;;
10463;SDS011;5279;42.048;24.638;2023-08-20T13:17:21;4.88;;;3.30;;
10463;SDS011;5279;42.048;24.638;2023-08-20T13:19:49;4.10;;;3.08;;
10463;SDS011;5279;42.048;24.638;2023-08-20T13:22:16;3.33;;;3.03;;
10463;SDS011;5279;42.048;24.638;2023-08-20T13:24:44;4.25;;;3.25;;
10463;SDS011;5279;42.048;24.638;2023-08-20T13:27:12;3.65;;;3.28;;
10463;SDS011;5279;42.048;24.638;2023-08-20T13:29:40;3.60;;;3.30;;
10463;SDS011;5279;42.048;24.638;2023-08-20T13:32:07;4.53;;;3.42;;
10463;SDS011;5279;42.048;24.638;2023-08-20T13:34:34;5.25;;;3.10;;
10463;SDS011;5279;42.048;24.638;2023-08-20T13:37:01;3.30;;;3.00;;
10463;SDS011;5279;42.048;24.638;2023-08-20T13:39:28;3.55;;;3.25;;
10463;SDS011;5279;42.048;24.638;2023-08-20T13:41:57;5.20;;;3.22;;
10463;SDS011;5279;42.048;24.638;2023-08-20T13:44:24;3.72;;;3.40;;
10463;SDS011;5279;42.048;24.638;2023-08-20T13:46:51;5.88;;;3.65;;
10463;SDS011;5279;42.048;24.638;2023-08-20T13:49:18;3.72;;;3.10;;
10463;SDS011;5279;42.048;24.638;2023-08-20T13:51:45;3.90;;;3.10;;
10463;SDS011;5279;42.048;24.638;2023-08-20T13:54:12;3.28;;;3.00;;
10463;SDS011;5279;42.048;24.638;2023-08-20T13:56:39;3.25;;;2.90;;
10463;SDS011;5279;42.048;24.638;2023-08-20T13:59:08;3.42;;;3.13;;
10463;SDS011;5279;42.048;24.638;2023-08-20T14:01:42;10.18;;;3.25;;
10463;SDS011;5279;42.048;24.638;2023-08-20T14:04:09;7.32;;;3.30;;
10463;SDS011;5279;42.048;24.638;2023-08-20T14:06:36;4.72;;;3.50;;
10463;SDS011;5279;42.048;24.638;2023-08-20T14:09:03;5.32;;;3.67;;
10463;SDS011;5279;42.048;24.638;2023-08-20T14:11:31;3.65;;;3.35;;
10463;SDS011;5279;42.048;24.638;2023-08-20T14:13:58;5.43;;;3.33;;
10463;SDS011;5279;42.048;24.638;2023-08-20T14:16:27;3.33;;;3.03;;
10463;SDS011;5279;42.048;24.638;2023-08-20T14:18:54;6.13;;;2.88;;
10463;SDS011;5279;42.048;24.638;2023-08-20T14:21:21;3.40;;;3.10;;
10463;SDS011;5279;42.048;24.638;2023-08-20T14:23:48;5.30;;;3.25;;
10463;SDS011;5279;42.048;24.638;2023-08-20T14:26:15;3.75;;;3.42;;
10463;SDS011;5279;42.048;24.638;2023-08-20T14:28:42;3.47;;;3.28;;
10463;SDS011;5279;42.048;24.638;2023-08-20T14:31:09;3.75;;;3.35;;
10463;SDS011;5279;42.048;24.638;2023-08-20T14:33:38;4.05;;;3.10;;
10463;SDS011;5279;42.048;24.638;2023-08-20T14:36:05;4.28;;;2.95;;
10463;SDS011;5279;42.048;24.638;2023-08-20T14:38:33;6.00;;;3.10;;
10463;SDS011;5279;42.048;24.638;2023-08-20T14:41:00;3.35;;;3.05;;
10463;SDS011;5279;42.048;24.638;2023-08-20T14:43:27;4.00;;;3.03;;
10463;SDS011;5279;42.048;24.638;2023-08-20T14:45:55;3.42;;;3.10;;
10463;SDS011;5279;42.048;24.638;2023-08-20T14:48:23;3.55;;;3.25;;
10463;SDS011;5279;42.048;24.638;2023-08-20T14:50:53;3.70;;;2.97;;
10463;SDS011;5279;42.048;24.638;2023-08-20T14:53:20;3.33;;;3.03;;
10463;SDS011;5279;42.048;24.638;2023-08-20T14:55:47;4.03;;;2.90;;
10463;SDS011;5279;42.048;24.638;2023-08-20T14:58:14;4.18;;;3.20;;
10463;SDS011;5279;42.048;24.638;2023-08-20T15:00:57;3.30;;;3.00;;